Terminal Aerodrome Forecast
Issued by NWS

Home | Current Version | Previous Version | Text Only | Print | Product List | Glossary On
Versions: 1 2 3 4 5 6 7 8 9 10 11 12 13 14 15 16 17
000
FTUS43 KILX 262300 RRA
TAFCMI
TAF
KCMI 262350Z 2700/2724 16008KT P6SM FEW025
     FM270400 18012KT P6SM BKN025
     FM270900 18011KT 5SM -DZ BR OVC025 WS020/22035KT
      TEMPO 2711/2715 -RA OVC007
     FM271500 20012KT 5SM -RADZ BR OVC006
     FM271800 22016KT P6SM VCSH OVC008
     FM272100 27016KT P6SM OVC012=

USA.gov is the U.S. government's official web portal to all federal, state and local government web resources and services.